Time;durP1;ratioP1;P1;durP2;ratioP2;P2;SDS_P1;SDS_P2;PMS_P1;PMS_P2;Temp;Humidity;BMP_temperature;BMP_pressure;BME280_temperature;BME280_humidity;BME280_pressure;Samples;Min_cycle;Max_cycle;Signal;HPM_P1;HPM_P2
2021/12/22 00:02:26;;;;;;;;;;;;;;;;;;2210615;59;23556;-69
2021/12/22 00:04:59;;;;;;;;;;;;;;;;;;2210285;59;21179;-69
2021/12/22 00:07:32;;;;;;;;;;;;;;;;;;2210785;59;31396;-69
2021/12/22 00:10:05;;;;;;;;;;;;;;;;;;2210972;59;13953;-69
2021/12/22 00:12:39;;;;;;;;;;;;;;;;;;2211121;59;19407;-69
2021/12/22 00:15:16;;;;;;;;;;;;;;;;;;2210336;59;23113;-70
2021/12/22 00:17:49;;;;;;;;;;;;;;;;;;2209458;59;33445;-69
2021/12/22 00:20:22;;;;;;;;;;;;;;;;;;2210925;67;20839;-69
2021/12/22 00:22:55;;;;;;;;;;;;;;;;;;2207951;64;16390;-68
2021/12/22 00:25:28;;;;;;;;;;;;;;;;;;2211066;59;23121;-69
2021/12/22 00:28:02;;;;;;;;;;;;;;;;;;2211358;60;15368;-69
2021/12/22 00:30:39;;;;;;;;;;;;;;;;;;2210022;63;23255;-69
2021/12/22 00:33:13;;;;;;;;;;;;;;;;;;2209887;67;34760;-69
2021/12/22 00:35:46;;;;;;;;;;;;;;;;;;2210823;59;19501;-69
2021/12/22 00:38:20;;;;;;;;;;;;;;;;;;2209820;59;33460;-69
2021/12/22 00:40:53;;;;;;;;;;;;;;;;;;2209810;59;25495;-68
2021/12/22 00:43:26;;;;;;;;;;;;;;;;;;2213495;67;16531;-69
2021/12/22 00:46:02;;;;;;;;;;;;;;;;;;2211443;59;17694;-69
2021/12/22 00:48:36;;;;;;;;;;;;;;;;;;2212158;59;20068;-69
2021/12/22 00:51:09;;;;;;;;;;;;;;;;;;2210180;59;25030;-69
2021/12/22 00:53:42;;;;;;;;;;;;;;;;;;2211701;59;32977;-69
2021/12/22 00:56:16;;;;;;;;;;;;;;;;;;2210960;59;16562;-69
2021/12/22 00:58:49;;;;;;;;;;;;;;;;;;2209936;64;24168;-69
2021/12/22 01:01:25;;;;;;;;;;;;;;;;;;2211971;59;30936;-69
2021/12/22 01:03:58;;;;;;;;;;;;;;;;;;2211950;59;27847;-69
2021/12/22 01:06:32;;;;;;;;;;;;;;;;;;2210622;59;14859;-68
2021/12/22 01:09:05;;;;;;;;;;;;;;;;;;2210197;59;23587;-68
2021/12/22 01:11:38;;;;;;;;;;;;;;;;;;2210626;59;19195;-69
2021/12/22 01:14:11;;;;;;;;;;;;;;;;;;2210920;64;20222;-69
2021/12/22 01:16:49;;;;;;;;;;;;;;;;;;2209051;59;31552;-69
2021/12/22 01:19:31;;;;;;;;;;;;;;;;;;2210820;67;30691;-69
2021/12/22 01:22:18;;;;;;;;;;;;;;;;;;2210683;67;48111;-69
2021/12/22 01:25:00;;;;;;;;;;;;;;;;;;2209809;67;18728;-69
2021/12/22 01:27:37;;;;;;;;;;;;;;;;;;2210795;64;30163;-69
2021/12/22 01:30:12;;;;;;;;;;;;;;;;;;2210874;64;24542;-69
2021/12/22 01:32:49;;;;;;;;;;;;;;;;;;2210028;59;21173;-69
2021/12/22 01:35:23;;;;;;;;;;;;;;;;;;2211428;67;17406;-69
2021/12/22 01:37:56;;;;;;;;;;;;;;;;;;2210602;59;27970;-69
2021/12/22 01:40:30;;;;;;;;;;;;;;;;;;2210657;67;17240;-69
2021/12/22 01:43:05;;;;;;;;;;;;;;;;;;2206603;59;37662;-68
2021/12/22 01:45:54;;;;;;;;;;;;;;;;;;2210826;67;22229;-69
2021/12/22 01:51:36;;;;;;;;;;;;;;;;;;2209412;59;69648;-69
2021/12/22 01:54:11;;;;;;;;;;;;;;;;;;2210581;59;31313;-69
2021/12/22 01:56:45;;;;;;;;;;;;;;;;;;2209588;59;24252;-69
2021/12/22 01:59:20;;;;;;;;;;;;;;;;;;2211373;59;24516;-70
2021/12/22 02:01:53;;;;;;;;;;;;;;;;;;2211070;59;15011;-69
2021/12/22 02:04:29;;;;;;;;;;;;;;;;;;2210658;59;18198;-69
2021/12/22 02:07:02;;;;;;;;;;;;;;;;;;2210407;59;18219;-69
2021/12/22 02:09:54;;;;;;;;;;;;;;;;;;2210928;67;29652;-68
2021/12/22 02:12:30;;;;;;;;;;;;;;;;;;2210494;59;21518;-70
2021/12/22 02:15:05;;;;;;;;;;;;;;;;;;2209516;59;41761;-69
2021/12/22 02:17:40;;;;;;;;;;;;;;;;;;2203672;53;17754;-70
2021/12/22 02:27:44;;;;;;;;;;;;;;;;;;2105381;64;6311678;-70
2021/12/22 02:47:40;;;;;;;;;;;;;;;;;;2195157;59;147716;-70
2021/12/22 03:04:02;;;;;;;;;;;;;;;;;;2197292;67;162910;-70
2021/12/22 03:06:41;;;;;;;;;;;;;;;;;;2194525;59;104504;-70
2021/12/22 03:13:17;;;;;;;;;;;;;;;;;;2186741;60;1939;-71
2021/12/22 03:15:51;;;;;;;;;;;;;;;;;;2195509;59;43650;-70
2021/12/22 03:37:02;;;;;;;;;;;;;;;;;;2187039;59;1997;-71
2021/12/22 03:47:11;;;;;;;;;;;;;;;;;;2191118;59;1602;-70
2021/12/22 03:53:32;;;;;;;;;;;;;;;;;;2186030;67;1991;-70
2021/12/22 03:56:06;;;;;;;;;;;;;;;;;;2192947;59;1830;-70
2021/12/22 03:58:43;;;;;;;;;;;;;;;;;;2194214;67;1130;-70
2021/12/22 04:07:38;;;;;;;;;;;;;;;;;;2193879;59;1526;-70
2021/12/22 04:13:40;;;;;;;;;;;;;;;;;;2192567;59;1999;-70
2021/12/22 04:22:59;;;;;;;;;;;;;;;;;;2191940;59;1662;-70
2021/12/22 04:29:10;;;;;;;;;;;;;;;;;;2191199;60;1889;-70
2021/12/22 04:31:54;;;;;;;;;;;;;;;;;;2193123;67;1932;-70
2021/12/22 04:38:11;;;;;;;;;;;;;;;;;;2184667;60;1298;-70
2021/12/22 04:44:14;;;;;;;;;;;;;;;;;;2192993;60;1188;-70
2021/12/22 04:54:01;;;;;;;;;;;;;;;;;;2190501;59;1934;-70
2021/12/22 05:00:08;;;;;;;;;;;;;;;;;;2190634;60;1299;-70
2021/12/22 05:06:17;;;;;;;;;;;;;;;;;;2187531;59;1480;-70
2021/12/22 05:12:23;;;;;;;;;;;;;;;;;;2193545;59;1926;-69
2021/12/22 05:14:56;;;;;;;;;;;;;;;;;;2193069;59;1675;-70
2021/12/22 05:20:49;;;;;;;;;;;;;;;;;;2193017;67;1094;-70
2021/12/22 05:26:42;;;;;;;;;;;;;;;;;;2192972;67;1090;-70
2021/12/22 05:39:25;;;;;;;;;;;;;;;;;;2192434;59;1017;-69
2021/12/22 05:45:15;;;;;;;;;;;;;;;;;;2193612;59;2450;-70
2021/12/22 05:48:29;;;;;;;;;;;;;;;;;;2187024;60;1396;-70
2021/12/22 05:54:42;;;;;;;;;;;;;;;;;;2190404;59;1646;-70
2021/12/22 05:57:18;;;;;;;;;;;;;;;;;;2193304;59;1409;-70
2021/12/22 06:03:11;;;;;;;;;;;;;;;;;;2192215;59;2517;-70
2021/12/22 06:05:44;;;;;;;;;;;;;;;;;;2193183;59;1470;-69
2021/12/22 06:08:18;;;;;;;;;;;;;;;;;;2194822;59;1208;-70
2021/12/22 06:10:54;;;;;;;;;;;;;;;;;;2195353;67;1100;-70
2021/12/22 06:13:29;;;;;;;;;;;;;;;;;;2194121;59;1927;-70
2021/12/22 06:16:03;;;;;;;;;;;;;;;;;;2192065;59;1901;-70
2021/12/22 06:18:43;;;;;;;;;;;;;;;;;;2193830;67;1052;-70
2021/12/22 06:21:16;;;;;;;;;;;;;;;;;;2193531;67;1224;-70
2021/12/22 06:23:50;;;;;;;;;;;;;;;;;;2194071;59;1421;-70
2021/12/22 06:26:38;;;;;;;;;;;;;;;;;;2192771;67;1093;-70
2021/12/22 06:29:12;;;;;;;;;;;;;;;;;;2192919;59;1571;-70
2021/12/22 06:31:45;;;;;;;;;;;;;;;;;;2191929;67;1968;-70
2021/12/22 06:34:19;;;;;;;;;;;;;;;;;;2194637;59;1493;-70
2021/12/22 06:36:52;;;;;;;;;;;;;;;;;;2197614;59;1308;-70
2021/12/22 06:39:29;;;;;;;;;;;;;;;;;;2194843;59;1201;-70
2021/12/22 06:42:06;;;;;;;;;;;;;;;;;;2195445;67;1135;-70
2021/12/22 06:45:05;;;;;;;;;;;;;;;;;;2192976;67;1204;-70
2021/12/22 06:47:38;;;;;;;;;;;;;;;;;;2194127;67;1170;-70
2021/12/22 06:50:12;;;;;;;;;;;;;;;;;;2194300;60;1155;-70
2021/12/22 06:52:49;;;;;;;;;;;;;;;;;;2194852;59;1936;-70
2021/12/22 06:55:22;;;;;;;;;;;;;;;;;;2192609;59;1671;-70
2021/12/22 06:57:59;;;;;;;;;;;;;;;;;;2194427;59;1424;-70
2021/12/22 07:00:42;;;;;;;;;;;;;;;;;;2192916;67;1176;-70
2021/12/22 07:03:16;;;;;;;;;;;;;;;;;;2193572;67;1180;-70
2021/12/22 07:05:49;;;;;;;;;;;;;;;;;;2193421;59;1286;-70
2021/12/22 07:08:23;;;;;;;;;;;;;;;;;;2193046;67;1447;-70
2021/12/22 07:10:56;;;;;;;;;;;;;;;;;;2192356;59;1135;-70
2021/12/22 07:13:32;;;;;;;;;;;;;;;;;;2192151;59;1925;-70
2021/12/22 07:16:06;;;;;;;;;;;;;;;;;;2193205;59;2073;-70
2021/12/22 07:18:40;;;;;;;;;;;;;;;;;;2193411;67;1260;-70
2021/12/22 07:21:14;;;;;;;;;;;;;;;;;;2192248;67;1199;-70
2021/12/22 07:23:53;;;;;;;;;;;;;;;;;;2192159;59;1401;-70
2021/12/22 07:26:30;;;;;;;;;;;;;;;;;;2192902;67;1142;-70
2021/12/22 07:29:07;;;;;;;;;;;;;;;;;;2193453;67;1158;-71
2021/12/22 07:31:41;;;;;;;;;;;;;;;;;;2193875;67;1125;-70
2021/12/22 07:34:18;;;;;;;;;;;;;;;;;;2193294;59;1988;-70
2021/12/22 07:37:13;;;;;;;;;;;;;;;;;;2192481;59;1353;-70
2021/12/22 07:39:47;;;;;;;;;;;;;;;;;;2191175;59;1570;-69
2021/12/22 07:42:26;;;;;;;;;;;;;;;;;;2194024;61;1173;-70
2021/12/22 07:45:02;;;;;;;;;;;;;;;;;;2191707;59;1618;-70
2021/12/22 07:47:36;;;;;;;;;;;;;;;;;;2193129;59;1700;-70
2021/12/22 07:50:15;;;;;;;;;;;;;;;;;;2195056;59;1242;-69
2021/12/22 07:55:35;;;;;;;;;;;;;;;;;;2192136;59;1601;-70
2021/12/22 07:58:10;;;;;;;;;;;;;;;;;;2193630;59;1762;-70
2021/12/22 08:03:37;;;;;;;;;;;;;;;;;;2192881;59;1521;-69
2021/12/22 08:06:45;;;;;;;;;;;;;;;;;;2193114;59;1681;-69
2021/12/22 08:09:25;;;;;;;;;;;;;;;;;;2192232;59;1722;-69
2021/12/22 08:12:04;;;;;;;;;;;;;;;;;;2192659;59;1268;-70
2021/12/22 08:14:39;;;;;;;;;;;;;;;;;;2193639;67;1979;-69
2021/12/22 08:17:17;;;;;;;;;;;;;;;;;;2192080;59;1538;-70
2021/12/22 08:19:50;;;;;;;;;;;;;;;;;;2191730;67;1105;-70
2021/12/22 08:22:23;;;;;;;;;;;;;;;;;;2194782;59;1410;-70
2021/12/22 08:24:58;;;;;;;;;;;;;;;;;;2192071;59;1529;-70
2021/12/22 08:27:34;;;;;;;;;;;;;;;;;;2192740;67;1065;-70
2021/12/22 08:30:31;;;;;;;;;;;;;;;;;;2192016;59;1710;-70
2021/12/22 08:33:20;;;;;;;;;;;;;;;;;;2194444;59;2410;-70
2021/12/22 08:41:47;;;;;;;;;;;;;;;;;;2191166;59;1847;-70
2021/12/22 08:44:22;;;;;;;;;;;;;;;;;;2190179;59;1583;-70
2021/12/22 08:50:29;;;;;;;;;;;;;;;;;;2190613;59;1950;-70
2021/12/22 08:59:39;;;;;;;;;;;;;;;;;;2191070;59;1744;-70
2021/12/22 09:02:13;;;;;;;;;;;;;;;;;;2193489;59;1248;-70
2021/12/22 09:04:47;;;;;;;;;;;;;;;;;;2192923;59;1777;-70
2021/12/22 09:07:23;;;;;;;;;;;;;;;;;;2196535;59;1704;-70
2021/12/22 09:09:57;;;;;;;;;;;;;;;;;;2192492;59;1264;-70
2021/12/22 09:12:30;;;;;;;;;;;;;;;;;;2193471;59;1361;-70
2021/12/22 09:15:04;;;;;;;;;;;;;;;;;;2193002;67;1926;-69
2021/12/22 09:17:37;;;;;;;;;;;;;;;;;;2192745;59;1260;-70
2021/12/22 09:20:10;;;;;;;;;;;;;;;;;;2191703;59;1533;-70
2021/12/22 09:22:46;;;;;;;;;;;;;;;;;;2190772;59;1585;-69
2021/12/22 09:25:20;;;;;;;;;;;;;;;;;;2192793;59;1537;-70
2021/12/22 09:27:53;;;;;;;;;;;;;;;;;;2189755;59;120931;-70
2021/12/22 09:30:27;;;;;;;;;;;;;;;;;;2189445;59;20478;-70
2021/12/22 09:33:00;;;;;;;;;;;;;;;;;;2189934;59;22260;-70
2021/12/22 09:35:33;;;;;;;;;;;;;;;;;;2193462;59;16216;-70
2021/12/22 09:38:11;;;;;;;;;;;;;;;;;;2191884;59;14944;-70
2021/12/22 09:40:44;;;;;;;;;;;;;;;;;;2190493;59;47742;-69
2021/12/22 09:43:18;;;;;;;;;;;;;;;;;;2190798;59;55622;-70
2021/12/22 09:45:56;;;;;;;;;;;;;;;;;;2191052;59;14961;-70
2021/12/22 09:54:04;;;;;;;;;;;;;;;;;;2207170;59;14940;-69
2021/12/22 09:56:40;;;;;;;;;;;;;;;;;;2208739;59;16048;-69
2021/12/22 09:59:14;;;;;;;;;;;;;;;;;;2205945;59;18416;-69
2021/12/22 10:01:47;;;;;;;;;;;;;;;;;;2205441;59;19193;-70
2021/12/22 10:04:20;;;;;;;;;;;;;;;;;;2204530;60;16451;-69
2021/12/22 10:06:53;;;;;;;;;;;;;;;;;;2203621;59;31482;-69
2021/12/22 10:09:30;;;;;;;;;;;;;;;;;;2205655;59;19861;-69
2021/12/22 10:12:07;;;;;;;;;;;;;;;;;;2205144;59;14957;-69
2021/12/22 10:14:49;;;;;;;;;;;;;;;;;;2204711;67;23103;-69
2021/12/22 10:17:32;;;;;;;;;;;;;;;;;;2204595;59;13469;-70
2021/12/22 10:20:08;;;;;;;;;;;;;;;;;;2204853;67;17509;-69
2021/12/22 10:22:48;;;;;;;;;;;;;;;;;;2203127;59;26664;-69
2021/12/22 10:25:25;;;;;;;;;;;;;;;;;;2203983;59;17595;-69
2021/12/22 10:28:00;;;;;;;;;;;;;;;;;;2204058;59;15516;-69
2021/12/22 10:30:36;;;;;;;;;;;;;;;;;;2203958;59;15283;-69
2021/12/22 10:33:11;;;;;;;;;;;;;;;;;;2200956;59;25964;-69
2021/12/22 10:35:45;;;;;;;;;;;;;;;;;;2204767;59;23144;-69
2021/12/22 10:38:20;;;;;;;;;;;;;;;;;;2205060;59;24958;-69
2021/12/22 10:40:57;;;;;;;;;;;;;;;;;;2203609;59;23313;-70
2021/12/22 10:43:31;;;;;;;;;;;;;;;;;;2202711;59;15822;-70
2021/12/22 10:46:06;;;;;;;;;;;;;;;;;;2204192;67;25172;-69
2021/12/22 10:51:30;;;;;;;;;;;;;;;;;;2203751;67;17279;-69
2021/12/22 10:54:08;;;;;;;;;;;;;;;;;;2203453;59;28868;-69
2021/12/22 10:56:45;;;;;;;;;;;;;;;;;;2202600;59;13704;-69
2021/12/22 10:59:19;;;;;;;;;;;;;;;;;;2201299;59;21311;-69
2021/12/22 11:02:07;;;;;;;;;;;;;;;;;;2203501;59;15756;-69
2021/12/22 11:04:45;;;;;;;;;;;;;;;;;;2204130;67;20711;-70
2021/12/22 11:07:23;;;;;;;;;;;;;;;;;;2204627;59;22627;-69
2021/12/22 11:09:56;;;;;;;;;;;;;;;;;;2204668;59;21595;-70
2021/12/22 11:12:41;;;;;;;;;;;;;;;;;;2206003;59;28337;-69
2021/12/22 11:15:25;;;;;;;;;;;;;;;;;;2204502;59;14041;-69
2021/12/22 11:17:58;;;;;;;;;;;;;;;;;;2204267;59;15619;-69
2021/12/22 11:20:31;;;;;;;;;;;;;;;;;;2204439;59;24246;-69
2021/12/22 11:23:13;;;;;;;;;;;;;;;;;;2204429;59;25262;-69
2021/12/22 11:25:47;;;;;;;;;;;;;;;;;;2206339;59;18707;-69
2021/12/22 11:28:24;;;;;;;;;;;;;;;;;;2205776;59;17198;-69
2021/12/22 11:30:57;;;;;;;;;;;;;;;;;;2203472;59;27801;-69
2021/12/22 11:33:31;;;;;;;;;;;;;;;;;;2204228;59;22518;-69
2021/12/22 11:36:05;;;;;;;;;;;;;;;;;;2204471;59;18906;-69
2021/12/22 11:38:38;;;;;;;;;;;;;;;;;;2205170;59;20135;-69
2021/12/22 11:41:15;;;;;;;;;;;;;;;;;;2204944;59;27150;-69
2021/12/22 11:43:51;;;;;;;;;;;;;;;;;;2204880;67;26147;-69
2021/12/22 11:46:28;;;;;;;;;;;;;;;;;;2205565;59;16430;-69
2021/12/22 11:49:01;;;;;;;;;;;;;;;;;;2203188;59;24836;-69
2021/12/22 11:51:37;;;;;;;;;;;;;;;;;;2207843;59;22793;-69
2021/12/22 11:54:11;;;;;;;;;;;;;;;;;;2208064;59;28480;-68
2021/12/22 11:56:45;;;;;;;;;;;;;;;;;;2208167;59;23070;-70
2021/12/22 11:59:46;;;;;;;;;;;;;;;;;;2209164;64;20330;-69
2021/12/22 12:02:33;;;;;;;;;;;;;;;;;;2198219;59;15376;-69
2021/12/22 12:05:17;;;;;;;;;;;;;;;;;;2207711;59;22402;-69
2021/12/22 12:07:53;;;;;;;;;;;;;;;;;;2208725;59;17677;-69
2021/12/22 12:10:39;;;;;;;;;;;;;;;;;;2207494;59;25160;-69
2021/12/22 12:13:35;;;;;;;;;;;;;;;;;;2206945;59;18722;-69
2021/12/22 12:22:16;;;;;;;;;;;;;;;;;;2207999;59;1707;-69
2021/12/22 12:24:50;;;;;;;;;;;;;;;;;;2208211;63;21437;-69
2021/12/22 12:27:38;;;;;;;;;;;;;;;;;;2209287;59;19546;-70
2021/12/22 12:30:15;;;;;;;;;;;;;;;;;;2208016;59;23666;-69
2021/12/22 12:33:21;;;;;;;;;;;;;;;;;;2207383;59;15215;-70
2021/12/22 12:36:08;;;;;;;;;;;;;;;;;;2204217;59;23458;-69
2021/12/22 12:38:46;;;;;;;;;;;;;;;;;;2203678;63;26812;-69
2021/12/22 12:41:21;;;;;;;;;;;;;;;;;;2208481;59;14733;-69
2021/12/22 12:43:56;;;;;;;;;;;;;;;;;;2208730;59;22369;-69
2021/12/22 12:46:44;;;;;;;;;;;;;;;;;;2207742;59;26450;-69
2021/12/22 12:49:38;;;;;;;;;;;;;;;;;;2205369;59;36590;-69
2021/12/22 12:52:29;;;;;;;;;;;;;;;;;;2203250;59;24840;-69
2021/12/22 12:55:15;;;;;;;;;;;;;;;;;;2205156;59;17126;-69
2021/12/22 12:57:48;;;;;;;;;;;;;;;;;;2207159;59;13979;-69
2021/12/22 13:00:23;;;;;;;;;;;;;;;;;;2211614;59;1204;-71
2021/12/22 13:03:09;;;;;;;;;;;;;;;;;;2210004;59;1145;-70
2021/12/22 13:05:42;;;;;;;;;;;;;;;;;;2207743;59;20757;-70
2021/12/22 13:08:18;;;;;;;;;;;;;;;;;;2206376;59;21619;-69
2021/12/22 13:10:57;;;;;;;;;;;;;;;;;;2205676;59;18245;-69
2021/12/22 13:15:45;;;;;;;;;;;;;;;;;;2208697;59;18360;-69
2021/12/22 13:16:39;;;;;;;;;;;;;;;;;;2205845;59;24409;-72
2021/12/22 13:19:12;;;;;;;;;;;;;;;;;;2208026;59;16930;-69
2021/12/22 13:21:45;;;;;;;;;;;;;;;;;;2206871;59;14144;-69
2021/12/22 13:24:23;;;;;;;;;;;;;;;;;;2206595;59;13487;-69
2021/12/22 13:26:56;;;;;;;;;;;;;;;;;;2206228;59;22738;-70
2021/12/22 13:29:29;;;;;;;;;;;;;;;;;;2208957;59;19101;-69
2021/12/22 13:32:07;;;;;;;;;;;;;;;;;;2209607;67;20177;-69
2021/12/22 13:34:44;;;;;;;;;;;;;;;;;;2205482;59;33486;-70
2021/12/22 13:37:17;;;;;;;;;;;;;;;;;;2208160;59;22540;-69
2021/12/22 13:39:53;;;;;;;;;;;;;;;;;;2206503;59;16520;-69
2021/12/22 13:42:26;;;;;;;;;;;;;;;;;;2207450;67;14408;-69
2021/12/22 13:45:00;;;;;;;;;;;;;;;;;;2208334;59;17719;-69
2021/12/22 13:47:33;;;;;;;;;;;;;;;;;;2206782;59;15566;-69
2021/12/22 13:50:07;;;;;;;;;;;;;;;;;;2207515;59;24082;-69
2021/12/22 13:52:40;;;;;;;;;;;;;;;;;;2206991;59;21416;-69
2021/12/22 13:55:16;;;;;;;;;;;;;;;;;;2209085;60;30257;-69
2021/12/22 13:57:49;;;;;;;;;;;;;;;;;;2207022;59;16273;-69
2021/12/22 14:00:22;;;;;;;;;;;;;;;;;;2203412;59;13572;-70
2021/12/22 14:02:56;;;;;;;;;;;;;;;;;;2206632;59;21468;-69
2021/12/22 14:05:29;;;;;;;;;;;;;;;;;;2205689;59;18299;-70
2021/12/22 14:08:02;;;;;;;;;;;;;;;;;;2203600;59;22802;-70
2021/12/22 14:10:38;;;;;;;;;;;;;;;;;;2204316;59;22647;-70
2021/12/22 14:13:11;;;;;;;;;;;;;;;;;;2208078;59;14745;-70
2021/12/22 14:15:44;;;;;;;;;;;;;;;;;;2206232;59;20736;-70
2021/12/22 14:18:17;;;;;;;;;;;;;;;;;;2206802;59;26079;-69
2021/12/22 14:20:51;;;;;;;;;;;;;;;;;;2207669;59;20857;-69
2021/12/22 14:23:25;;;;;;;;;;;;;;;;;;2207770;67;24320;-69
2021/12/22 14:26:09;;;;;;;;;;;;;;;;;;2206909;59;33411;-69
2021/12/22 14:28:43;;;;;;;;;;;;;;;;;;2208163;59;18182;-69
2021/12/22 14:31:16;;;;;;;;;;;;;;;;;;2209012;59;18665;-69
2021/12/22 14:34:04;;;;;;;;;;;;;;;;;;2207065;59;24155;-69
2021/12/22 14:36:43;;;;;;;;;;;;;;;;;;2205415;59;20739;-69
2021/12/22 14:39:17;;;;;;;;;;;;;;;;;;2207357;59;19648;-69
2021/12/22 14:41:55;;;;;;;;;;;;;;;;;;2206082;59;15741;-69
2021/12/22 14:44:28;;;;;;;;;;;;;;;;;;2207173;59;30160;-69
2021/12/22 14:47:01;;;;;;;;;;;;;;;;;;2205988;59;19385;-69
2021/12/22 14:49:40;;;;;;;;;;;;;;;;;;2207707;59;26621;-69
2021/12/22 14:52:14;;;;;;;;;;;;;;;;;;2206631;59;21347;-69
2021/12/22 14:54:48;;;;;;;;;;;;;;;;;;2207428;59;13348;-69
2021/12/22 14:57:29;;;;;;;;;;;;;;;;;;2208638;59;18772;-69
2021/12/22 15:00:02;;;;;;;;;;;;;;;;;;2208056;59;14135;-69
2021/12/22 15:02:35;;;;;;;;;;;;;;;;;;2208477;64;24454;-69
2021/12/22 15:05:09;;;;;;;;;;;;;;;;;;2204887;59;20262;-69
2021/12/22 15:07:42;;;;;;;;;;;;;;;;;;2208109;59;29942;-69
2021/12/22 15:10:15;;;;;;;;;;;;;;;;;;2208193;59;18584;-69
2021/12/22 15:12:51;;;;;;;;;;;;;;;;;;2207306;59;28254;-69
2021/12/22 15:15:24;;;;;;;;;;;;;;;;;;2207172;59;26140;-69
2021/12/22 15:17:57;;;;;;;;;;;;;;;;;;2205563;59;24588;-69
2021/12/22 15:20:30;;;;;;;;;;;;;;;;;;2206660;59;25001;-69
2021/12/22 15:23:04;;;;;;;;;;;;;;;;;;2209223;59;13576;-70
2021/12/22 15:25:37;;;;;;;;;;;;;;;;;;2208443;59;24912;-69
2021/12/22 15:28:13;;;;;;;;;;;;;;;;;;2208406;59;24449;-69
2021/12/22 15:30:48;;;;;;;;;;;;;;;;;;2207171;59;26531;-69
2021/12/22 15:33:23;;;;;;;;;;;;;;;;;;2208500;59;46273;-69
2021/12/22 15:35:56;;;;;;;;;;;;;;;;;;2206554;59;33863;-69
2021/12/22 15:38:30;;;;;;;;;;;;;;;;;;2205775;59;18823;-72
2021/12/22 15:41:03;;;;;;;;;;;;;;;;;;2207810;59;16139;-69
2021/12/22 15:43:39;;;;;;;;;;;;;;;;;;2207813;59;28015;-69
2021/12/22 15:46:13;;;;;;;;;;;;;;;;;;2207654;59;15823;-70
2021/12/22 15:48:46;;;;;;;;;;;;;;;;;;2205648;59;27688;-69
2021/12/22 15:51:19;;;;;;;;;;;;;;;;;;2208503;59;18158;-69
2021/12/22 15:53:52;;;;;;;;;;;;;;;;;;2208630;59;18134;-69
2021/12/22 15:56:25;;;;;;;;;;;;;;;;;;2208952;59;15952;-69
2021/12/22 15:59:01;;;;;;;;;;;;;;;;;;2207661;59;19222;-69
2021/12/22 16:01:35;;;;;;;;;;;;;;;;;;2209128;59;14518;-69
2021/12/22 16:04:08;;;;;;;;;;;;;;;;;;2207778;59;12889;-70
2021/12/22 16:06:41;;;;;;;;;;;;;;;;;;2207174;59;28479;-69
2021/12/22 16:09:15;;;;;;;;;;;;;;;;;;2209006;59;30302;-69
2021/12/22 16:11:48;;;;;;;;;;;;;;;;;;2208269;59;20524;-69
2021/12/22 16:14:24;;;;;;;;;;;;;;;;;;2208071;59;22047;-69
2021/12/22 16:16:57;;;;;;;;;;;;;;;;;;2207195;59;21741;-69
2021/12/22 16:19:30;;;;;;;;;;;;;;;;;;2209542;59;14083;-69
2021/12/22 16:22:03;;;;;;;;;;;;;;;;;;2207988;59;20435;-69
2021/12/22 16:24:37;;;;;;;;;;;;;;;;;;2207539;59;20868;-69
2021/12/22 16:27:10;;;;;;;;;;;;;;;;;;2209170;59;19792;-69
2021/12/22 16:29:46;;;;;;;;;;;;;;;;;;2208563;59;16544;-69
2021/12/22 16:32:19;;;;;;;;;;;;;;;;;;2208466;59;17194;-69
2021/12/22 16:34:52;;;;;;;;;;;;;;;;;;2207300;59;23010;-69
2021/12/22 16:37:25;;;;;;;;;;;;;;;;;;2207388;59;22027;-70
2021/12/22 16:39:58;;;;;;;;;;;;;;;;;;2204605;59;58701;-69
2021/12/22 16:42:32;;;;;;;;;;;;;;;;;;2207121;59;19409;-69
2021/12/22 16:45:09;;;;;;;;;;;;;;;;;;2209174;63;17490;-69
2021/12/22 16:47:49;;;;;;;;;;;;;;;;;;2208101;67;18281;-69
2021/12/22 16:50:23;;;;;;;;;;;;;;;;;;2209174;59;16392;-70
2021/12/22 16:52:58;;;;;;;;;;;;;;;;;;2206155;59;24753;-69
2021/12/22 16:55:32;;;;;;;;;;;;;;;;;;2208173;59;15688;-69
2021/12/22 16:58:06;;;;;;;;;;;;;;;;;;2208747;59;16313;-69
2021/12/22 17:00:42;;;;;;;;;;;;;;;;;;2208102;59;18489;-69
2021/12/22 17:03:15;;;;;;;;;;;;;;;;;;2209902;59;19625;-69
2021/12/22 17:05:49;;;;;;;;;;;;;;;;;;2207728;59;38916;-69
2021/12/22 17:08:22;;;;;;;;;;;;;;;;;;2208819;64;36671;-69
2021/12/22 17:10:55;;;;;;;;;;;;;;;;;;2207307;59;47426;-69
2021/12/22 17:13:28;;;;;;;;;;;;;;;;;;2209710;59;17621;-69
2021/12/22 17:16:04;;;;;;;;;;;;;;;;;;2207589;59;22840;-69
2021/12/22 17:18:37;;;;;;;;;;;;;;;;;;2207713;60;50531;-69
2021/12/22 17:21:11;;;;;;;;;;;;;;;;;;2209861;59;15711;-69
2021/12/22 17:23:44;;;;;;;;;;;;;;;;;;2209218;59;20382;-69
2021/12/22 17:26:18;;;;;;;;;;;;;;;;;;2208257;59;49860;-69
2021/12/22 17:28:51;;;;;;;;;;;;;;;;;;2207954;59;19543;-69
2021/12/22 17:31:27;;;;;;;;;;;;;;;;;;2209921;59;12457;-69
2021/12/22 17:34:01;;;;;;;;;;;;;;;;;;2209190;59;19060;-69
2021/12/22 17:36:34;;;;;;;;;;;;;;;;;;2207417;59;65960;-70
2021/12/22 17:39:07;;;;;;;;;;;;;;;;;;2206888;59;29550;-70
2021/12/22 17:41:40;;;;;;;;;;;;;;;;;;2207623;59;21738;-69
2021/12/22 17:44:13;;;;;;;;;;;;;;;;;;2209225;67;15629;-69
2021/12/22 17:46:49;;;;;;;;;;;;;;;;;;2207792;59;28057;-69
2021/12/22 17:49:22;;;;;;;;;;;;;;;;;;2209435;59;27913;-69
2021/12/22 17:51:55;;;;;;;;;;;;;;;;;;2208264;59;17697;-69
2021/12/22 17:54:28;;;;;;;;;;;;;;;;;;2208226;59;23309;-69
2021/12/22 17:57:02;;;;;;;;;;;;;;;;;;2204552;59;15844;-69
2021/12/22 17:59:35;;;;;;;;;;;;;;;;;;2209535;67;20734;-69
2021/12/22 18:02:11;;;;;;;;;;;;;;;;;;2208664;59;22768;-69
2021/12/22 18:04:44;;;;;;;;;;;;;;;;;;2208957;59;14948;-69
2021/12/22 18:07:17;;;;;;;;;;;;;;;;;;2206286;59;30954;-69
2021/12/22 18:09:50;;;;;;;;;;;;;;;;;;2207533;59;19565;-69
2021/12/22 18:12:25;;;;;;;;;;;;;;;;;;2208527;64;30792;-69
2021/12/22 18:14:59;;;;;;;;;;;;;;;;;;2206656;64;44284;-70
2021/12/22 18:17:35;;;;;;;;;;;;;;;;;;2208326;59;20221;-70
2021/12/22 18:20:09;;;;;;;;;;;;;;;;;;2206700;59;17029;-69
2021/12/22 18:22:43;;;;;;;;;;;;;;;;;;2206951;59;63155;-69
2021/12/22 18:25:16;;;;;;;;;;;;;;;;;;2208623;59;18701;-69
2021/12/22 18:27:49;;;;;;;;;;;;;;;;;;2208334;59;27836;-69
2021/12/22 18:30:23;;;;;;;;;;;;;;;;;;2208981;59;19724;-69
2021/12/22 18:32:59;;;;;;;;;;;;;;;;;;2207184;59;22598;-69
2021/12/22 18:35:34;;;;;;;;;;;;;;;;;;2209906;67;18694;-70
2021/12/22 18:38:14;;;;;;;;;;;;;;;;;;2207755;64;30800;-69
2021/12/22 18:40:54;;;;;;;;;;;;;;;;;;2205799;59;26577;-69
2021/12/22 18:43:28;;;;;;;;;;;;;;;;;;2208029;59;26520;-69
2021/12/22 18:46:03;;;;;;;;;;;;;;;;;;2207882;59;34347;-70
2021/12/22 18:48:38;;;;;;;;;;;;;;;;;;2207096;64;22019;-69
2021/12/22 18:51:12;;;;;;;;;;;;;;;;;;2208522;59;29113;-69
2021/12/22 18:53:45;;;;;;;;;;;;;;;;;;2207287;59;19892;-69
2021/12/22 18:56:18;;;;;;;;;;;;;;;;;;2208123;59;21844;-69
2021/12/22 18:58:51;;;;;;;;;;;;;;;;;;2207074;59;40934;-69
2021/12/22 19:01:26;;;;;;;;;;;;;;;;;;2209119;64;18660;-69
2021/12/22 19:04:01;;;;;;;;;;;;;;;;;;2206785;59;20161;-69
2021/12/22 19:06:34;;;;;;;;;;;;;;;;;;2207357;59;40013;-69
2021/12/22 19:09:08;;;;;;;;;;;;;;;;;;2208708;59;15183;-69
2021/12/22 19:11:41;;;;;;;;;;;;;;;;;;2208936;59;22885;-69
2021/12/22 19:14:14;;;;;;;;;;;;;;;;;;2207234;59;18983;-69
2021/12/22 19:16:47;;;;;;;;;;;;;;;;;;2206265;59;18436;-69
2021/12/22 19:19:23;;;;;;;;;;;;;;;;;;2208573;67;17257;-69
2021/12/22 19:21:56;;;;;;;;;;;;;;;;;;2209088;59;17352;-69
2021/12/22 19:24:29;;;;;;;;;;;;;;;;;;2206791;59;17817;-72
2021/12/22 19:27:02;;;;;;;;;;;;;;;;;;2209743;59;22853;-69
2021/12/22 19:29:36;;;;;;;;;;;;;;;;;;2208440;59;16662;-69
2021/12/22 19:32:09;;;;;;;;;;;;;;;;;;2208886;59;42969;-70
2021/12/22 19:34:45;;;;;;;;;;;;;;;;;;2202381;59;56666;-69
2021/12/22 19:37:18;;;;;;;;;;;;;;;;;;2207971;59;16002;-69
2021/12/22 19:39:51;;;;;;;;;;;;;;;;;;2207380;59;25193;-69
2021/12/22 19:42:24;;;;;;;;;;;;;;;;;;2206266;64;79380;-69
2021/12/22 19:44:58;;;;;;;;;;;;;;;;;;2204952;59;25235;-69
2021/12/22 19:47:31;;;;;;;;;;;;;;;;;;2208070;59;16746;-69
2021/12/22 19:50:07;;;;;;;;;;;;;;;;;;2207856;59;15958;-69
2021/12/22 19:52:42;;;;;;;;;;;;;;;;;;2208901;59;16160;-69
2021/12/22 19:55:15;;;;;;;;;;;;;;;;;;2208214;59;21771;-70
2021/12/22 19:57:49;;;;;;;;;;;;;;;;;;2209847;59;21692;-69
2021/12/22 20:00:23;;;;;;;;;;;;;;;;;;2207610;59;25934;-69
2021/12/22 20:02:56;;;;;;;;;;;;;;;;;;2209051;59;28161;-69
2021/12/22 20:05:33;;;;;;;;;;;;;;;;;;2209650;59;16163;-69
2021/12/22 20:08:07;;;;;;;;;;;;;;;;;;2208728;59;21371;-69
2021/12/22 20:10:40;;;;;;;;;;;;;;;;;;2207837;59;23751;-69
2021/12/22 20:13:13;;;;;;;;;;;;;;;;;;2209076;59;17628;-70
2021/12/22 20:15:46;;;;;;;;;;;;;;;;;;2207493;59;16833;-69
2021/12/22 20:18:20;;;;;;;;;;;;;;;;;;2206947;59;24496;-69
2021/12/22 20:20:56;;;;;;;;;;;;;;;;;;2207157;59;29382;-68
2021/12/22 20:23:29;;;;;;;;;;;;;;;;;;2209058;59;18237;-69
2021/12/22 20:26:02;;;;;;;;;;;;;;;;;;2207895;59;29044;-69
2021/12/22 20:28:35;;;;;;;;;;;;;;;;;;2208617;63;23801;-69
2021/12/22 20:31:09;;;;;;;;;;;;;;;;;;2205545;59;15979;-69
2021/12/22 20:33:42;;;;;;;;;;;;;;;;;;2208008;59;15920;-68
2021/12/22 20:36:18;;;;;;;;;;;;;;;;;;2206986;67;23528;-69
2021/12/22 20:38:51;;;;;;;;;;;;;;;;;;2206764;59;28520;-69
2021/12/22 20:41:24;;;;;;;;;;;;;;;;;;2209476;59;15967;-69
2021/12/22 20:43:57;;;;;;;;;;;;;;;;;;2208532;59;19726;-69
2021/12/22 20:46:30;;;;;;;;;;;;;;;;;;2207586;64;22106;-70
2021/12/22 20:49:04;;;;;;;;;;;;;;;;;;2209262;59;20473;-69
2021/12/22 20:51:40;;;;;;;;;;;;;;;;;;2209205;59;20663;-69